createdAt,value
2023-03-23T00:00:52.349Z,100823.34
2023-03-23T00:03:24.687Z,100826.41
2023-03-23T00:05:55.704Z,100829.53
2023-03-23T00:08:25.969Z,100833.91
2023-03-23T00:11:00.214Z,100835.84
2023-03-23T00:13:32.492Z,100841.88
2023-03-23T00:16:04.048Z,100839.09
2023-03-23T00:18:34.735Z,100853.75
2023-03-23T00:21:07.303Z,100849.03
2023-03-23T00:23:37.618Z,100861.22
2023-03-23T00:26:08.099Z,100873.09
2023-03-23T00:28:38.502Z,100867.56
2023-03-23T00:31:10.859Z,100867.41
2023-03-23T00:33:44.060Z,100869.03
2023-03-23T00:36:15.654Z,100881.22
2023-03-23T00:38:47.713Z,100887.56
2023-03-23T00:41:18.786Z,100888.06
2023-03-23T00:43:49.031Z,100890.34
2023-03-23T00:46:19.715Z,100899.78
2023-03-23T00:48:50.824Z,100901.72
2023-03-23T00:51:22.954Z,100902.19
2023-03-23T00:53:53.640Z,100910.50
2023-03-23T00:56:24.049Z,100911.97
2023-03-23T00:58:54.120Z,100923.81
2023-03-23T01:01:24.563Z,100924.66
2023-03-23T01:03:56.640Z,100927.09
2023-03-23T01:06:26.833Z,100934.59
2023-03-23T01:08:57.310Z,100939.78
2023-03-23T01:11:28.752Z,100938.16
2023-03-23T01:13:59.475Z,100937.00
2023-03-23T01:16:29.880Z,100940.59
2023-03-23T01:19:00.325Z,100938.63
2023-03-23T01:21:32.594Z,100943.38
2023-03-23T01:24:02.965Z,100950.84
2023-03-23T01:26:33.756Z,100944.50
2023-03-23T01:29:04.213Z,100951.31
2023-03-23T01:31:35.070Z,100955.72
2023-03-23T01:34:05.700Z,100958.00
2023-03-23T01:36:36.417Z,100966.78
2023-03-23T01:39:08.944Z,100963.53
2023-03-23T01:41:39.612Z,100967.28
2023-03-23T01:44:28.056Z,100963.38
2023-03-23T01:47:16.721Z,100972.47
2023-03-23T01:49:52.826Z,100974.59
2023-03-23T01:52:29.209Z,100980.66
2023-03-23T01:55:06.926Z,100988.31
2023-03-23T01:57:38.024Z,100997.91
2023-03-23T02:00:18.250Z,100999.66
2023-03-23T02:02:56.489Z,101007.03
2023-03-23T02:05:41.447Z,101007.81
2023-03-23T02:08:21.780Z,101011.38
2023-03-23T02:10:52.775Z,101006.69
2023-03-23T02:13:24.000Z,101006.03
2023-03-23T02:15:57.378Z,101012.72
2023-03-23T02:18:57.413Z,101009.63
2023-03-23T02:21:28.259Z,101015.97
2023-03-23T02:24:36.901Z,101013.22
2023-03-23T02:27:07.476Z,101023.13
2023-03-23T02:29:49.364Z,101024.78
2023-03-23T02:32:42.947Z,101015.00
2023-03-23T02:35:36.885Z,101017.75
2023-03-23T02:38:21.717Z,101006.69
2023-03-23T02:40:54.237Z,101016.94
2023-03-23T02:43:28.183Z,101017.13
2023-03-23T02:46:10.425Z,101015.16
2023-03-23T02:48:43.434Z,101016.28
2023-03-23T02:54:02.958Z,101010.91
2023-03-23T02:57:40.413Z,101009.31
2023-03-23T03:01:24.830Z,101018.41
2023-03-23T03:04:20.675Z,101015.66
2023-03-23T03:07:06.008Z,101018.41
2023-03-23T03:10:03.476Z,101017.28
2023-03-23T03:12:48.761Z,101012.53
2023-03-23T03:15:31.770Z,101020.53
2023-03-23T03:18:31.677Z,101016.94
2023-03-23T03:21:23.639Z,101014.50
2023-03-23T03:24:14.809Z,101008.63
2023-03-23T03:26:50.849Z,101011.91
2023-03-23T03:32:34.421Z,101006.22
2023-03-23T03:35:07.118Z,101000.03
2023-03-23T03:37:40.661Z,100992.22
2023-03-23T03:40:15.484Z,101001.66
2023-03-23T03:43:05.004Z,100981.16
2023-03-23T03:45:53.929Z,100997.28
2023-03-23T03:51:10.221Z,100985.22
2023-03-23T03:53:44.837Z,100984.06
2023-03-23T03:56:35.660Z,100980.97
2023-03-23T03:59:24.280Z,100979.84
2023-03-23T04:02:16.991Z,100972.03
2023-03-23T04:05:06.883Z,100964.22
2023-03-23T04:10:32.637Z,100970.56
2023-03-23T04:13:22.170Z,100963.56
2023-03-23T04:16:14.011Z,100962.09
2023-03-23T04:19:02.626Z,100950.69
2023-03-23T04:21:52.382Z,100941.25
2023-03-23T04:24:56.341Z,100951.16
2023-03-23T04:27:21.002Z,100945.63
2023-03-23T04:29:53.088Z,100936.19
2023-03-23T04:32:46.676Z,100933.75
2023-03-23T04:35:35.350Z,100944.19
2023-03-23T04:38:23.666Z,100929.53
2023-03-23T04:41:12.231Z,100921.22
2023-03-23T04:43:49.242Z,100923.97
2023-03-23T04:46:42.645Z,100923.66
2023-03-23T04:49:17.631Z,100916.16
2023-03-23T04:52:09.730Z,100910.28
2023-03-23T04:54:47.986Z,100909.16
2023-03-23T04:57:19.332Z,100904.97
2023-03-23T05:00:16.277Z,100895.50
2023-03-23T05:03:04.944Z,100889.16
2023-03-23T05:05:38.173Z,100884.09
2023-03-23T05:08:30.243Z,100887.69
2023-03-23T05:11:18.907Z,100879.53
2023-03-23T05:13:49.529Z,100859.34
2023-03-23T05:16:39.961Z,100859.34
2023-03-23T05:19:17.387Z,100860.66
2023-03-23T05:21:49.268Z,100854.63
2023-03-23T05:24:21.073Z,100851.66
2023-03-23T05:27:11.353Z,100842.91
2023-03-23T05:29:46.835Z,100833.44
2023-03-23T05:32:17.885Z,100832.75
2023-03-23T05:34:49.878Z,100830.34
2023-03-23T05:37:19.892Z,100822.50
2023-03-23T05:39:56.826Z,100815.19
2023-03-23T05:42:48.936Z,100811.22
2023-03-23T05:45:38.367Z,100804.56
2023-03-23T05:48:09.391Z,100801.94
2023-03-23T05:50:39.778Z,100788.09
2023-03-23T05:53:11.345Z,100781.75
2023-03-23T05:55:43.919Z,100784.19
2023-03-23T05:58:25.408Z,100784.31
2023-03-23T06:00:57.078Z,100774.06
2023-03-23T06:03:31.826Z,100785.13
2023-03-23T06:06:08.668Z,100775.34
2023-03-23T06:08:53.628Z,100768.69
2023-03-23T06:11:37.496Z,100776.97
2023-03-23T06:14:27.249Z,100767.84
2023-03-23T06:16:58.647Z,100766.69
2023-03-23T06:19:30.302Z,100759.22
2023-03-23T06:22:18.893Z,100757.25
2023-03-23T06:25:10.627Z,100747.78
2023-03-23T06:27:44.638Z,100749.41
2023-03-23T06:30:18.587Z,100742.38
2023-03-23T06:32:51.219Z,100735.69
2023-03-23T06:35:32.286Z,100728.66
2023-03-23T06:38:20.705Z,100722.34
2023-03-23T06:40:58.898Z,100718.56
2023-03-23T06:58:22.898Z,100700.13
2023-03-23T07:01:00.147Z,100691.16
2023-03-23T07:09:18.696Z,100677.59
2023-03-23T07:11:50.918Z,100665.09
2023-03-23T07:17:16.414Z,100661.97
2023-03-23T07:20:08.581Z,100657.56
2023-03-23T07:22:39.239Z,100647.75
2023-03-23T07:28:17.466Z,100633.59
2023-03-23T07:31:05.933Z,100640.88
2023-03-23T07:33:36.719Z,100634.84
2023-03-23T07:36:25.441Z,100627.03
2023-03-23T07:39:13.949Z,100621.84
2023-03-23T07:42:02.497Z,100621.00
2023-03-23T07:44:45.721Z,100623.44
2023-03-23T07:47:17.423Z,100610.75
2023-03-23T07:49:51.002Z,100604.06
2023-03-23T07:52:40.160Z,100610.41
2023-03-23T07:55:20.644Z,100603.72
2023-03-23T07:58:04.493Z,100599.78
2023-03-23T08:00:36.316Z,100603.34
2023-03-23T08:03:25.070Z,100596.34
2023-03-23T08:06:13.711Z,100590.78
2023-03-23T08:09:03.747Z,100584.91
2023-03-23T08:11:52.488Z,100583.75
2023-03-23T08:14:55.898Z,100581.44
2023-03-23T08:20:45.327Z,100582.72
2023-03-23T08:23:36.098Z,100570.84
2023-03-23T08:26:25.591Z,100572.00
2023-03-23T08:29:14.650Z,100565.63
2023-03-23T08:32:03.018Z,100563.31
2023-03-23T08:34:59.566Z,100573.59
2023-03-23T08:37:48.988Z,100560.09
2023-03-23T08:40:40.253Z,100568.06
2023-03-23T08:43:36.407Z,100566.44
2023-03-23T08:46:35.648Z,100568.53
2023-03-23T08:49:19.527Z,100566.56
2023-03-23T08:52:06.956Z,100559.06
2023-03-23T08:54:54.955Z,100560.69
2023-03-23T08:57:50.573Z,100558.38
2023-03-23T09:00:34.052Z,100552.81
2023-03-23T09:03:22.963Z,100552.03
2023-03-23T09:06:14.529Z,100553.66
2023-03-23T09:08:48.966Z,100554.44
2023-03-23T09:11:19.534Z,100540.13
2023-03-23T09:14:09.349Z,100541.72
2023-03-23T09:16:39.668Z,100541.72
2023-03-23T09:19:12.369Z,100542.88
2023-03-23T09:22:00.752Z,100540.13
2023-03-23T09:24:31.321Z,100532.97
2023-03-23T09:27:02.163Z,100543.72
2023-03-23T09:29:32.528Z,100541.31
2023-03-23T09:32:03.470Z,100542.09
2023-03-23T09:37:20.270Z,100535.03
2023-03-23T09:40:14.632Z,100539.44
2023-03-23T09:43:02.784Z,100542.69
2023-03-23T09:45:43.338Z,100544.66
2023-03-23T09:48:37.229Z,100537.13
2023-03-23T09:54:38.254Z,100539.09
2023-03-23T09:57:18.359Z,100533.56
2023-03-23T10:00:27.651Z,100538.63
2023-03-23T10:03:29.688Z,100539.44
2023-03-23T10:06:00.150Z,100549.25
2023-03-23T10:08:58.684Z,100546.84
2023-03-23T10:11:44.166Z,100541.31
2023-03-23T10:14:32.290Z,100542.88
2023-03-23T10:20:40.979Z,100540.47
2023-03-23T10:23:56.861Z,100546.00
2023-03-23T10:27:00.418Z,100553.19
2023-03-23T10:29:35.775Z,100550.75
2023-03-23T10:35:37.870Z,100548.00
2023-03-23T10:38:28.158Z,100544.75
2023-03-23T10:41:22.491Z,100538.06
2023-03-23T10:43:53.210Z,100532.84
2023-03-23T10:46:48.134Z,100533.19
2023-03-23T10:49:27.376Z,100540.69
2023-03-23T10:55:21.119Z,100542.19
2023-03-23T10:58:07.454Z,100537.13
2023-03-23T11:00:50.830Z,100544.59
2023-03-23T11:03:29.788Z,100542.66
2023-03-23T11:06:03.288Z,100543.81
2023-03-23T11:08:38.017Z,100550.16
2023-03-23T11:11:13.556Z,100545.44
2023-03-23T11:13:47.836Z,100557.66
2023-03-23T11:16:38.938Z,100544.59
2023-03-23T11:19:25.869Z,100564.81
2023-03-23T11:22:26.986Z,100573.13
2023-03-23T11:25:18.198Z,100577.06
2023-03-23T11:27:49.620Z,100577.06
2023-03-23T11:30:30.808Z,100583.41
2023-03-23T11:33:06.365Z,100600.03
2023-03-23T11:35:36.857Z,100595.31
2023-03-23T11:38:09.724Z,100593.69
2023-03-23T11:41:00.547Z,100603.16
2023-03-23T11:43:30.946Z,100601.19
2023-03-23T11:46:48.198Z,100611.47
2023-03-23T11:52:58.885Z,100608.34
2023-03-23T11:55:35.651Z,100615.84
2023-03-23T11:58:15.758Z,100614.69
2023-03-23T12:00:51.965Z,100619.78
2023-03-23T12:03:50.032Z,100614.22
2023-03-23T12:06:34.728Z,100615.06
2023-03-23T12:09:50.369Z,100623.00
2023-03-23T12:12:34.189Z,100614.22
2023-03-23T12:15:29.895Z,100619.78
2023-03-23T12:18:20.338Z,100626.47
2023-03-23T12:20:56.627Z,100626.47
2023-03-23T12:23:34.233Z,100631.53
2023-03-23T12:26:49.783Z,100633.16
2023-03-23T12:29:35.347Z,100636.59
2023-03-23T12:32:36.957Z,100647.69
2023-03-23T12:35:29.800Z,100648.81
2023-03-23T12:38:45.717Z,100649.66
2023-03-23T12:41:22.311Z,100650.13
2023-03-23T12:44:02.520Z,100660.38
2023-03-23T12:46:45.888Z,100663.16
2023-03-23T12:49:25.983Z,100661.22
2023-03-23T12:52:39.315Z,100663.16
2023-03-23T12:55:40.845Z,100671.47
2023-03-23T12:58:20.358Z,100664.31
2023-03-23T13:01:06.397Z,100674.59
2023-03-23T13:04:11.591Z,100671.34
2023-03-23T13:06:50.488Z,100681.28
2023-03-23T13:09:52.137Z,100689.94
2023-03-23T13:12:24.243Z,100692.72
2023-03-23T13:15:28.023Z,100692.25
2023-03-23T13:18:12.789Z,100696.81
2023-03-23T13:21:15.055Z,100709.06
2023-03-23T13:23:57.146Z,100706.28
2023-03-23T13:26:28.423Z,100698.66
2023-03-23T13:29:21.851Z,100712.00
2023-03-23T13:31:53.504Z,100710.19
2023-03-23T13:34:28.675Z,100718.88
2023-03-23T13:37:08.168Z,100709.06
2023-03-23T13:39:52.461Z,100712.66
2023-03-23T13:42:26.225Z,100709.22
2023-03-23T13:44:56.626Z,100713.00
2023-03-23T13:47:27.233Z,100720.72
2023-03-23T13:50:00.533Z,100719.97
2023-03-23T13:52:53.109Z,100713.28
2023-03-23T13:55:46.597Z,100720.28
2023-03-23T13:58:27.364Z,100714.63
2023-03-23T14:01:19.775Z,100718.84
2023-03-23T14:03:56.146Z,100723.00
2023-03-23T14:06:30.306Z,100737.25
2023-03-23T14:09:40.283Z,100736.25
2023-03-23T14:12:23.329Z,100746.97
2023-03-23T14:15:33.375Z,100750.97
2023-03-23T14:18:07.610Z,100753.34
2023-03-23T14:20:43.406Z,100754.41
2023-03-23T14:23:21.494Z,100758.84
2023-03-23T14:26:21.655Z,100759.16
2023-03-23T14:28:57.020Z,100756.38
2023-03-23T14:31:30.444Z,100760.16
2023-03-23T14:34:32.709Z,100754.00
2023-03-23T14:37:21.446Z,100763.59
2023-03-23T14:40:15.774Z,100760.16
2023-03-23T14:42:46.420Z,100759.84
2023-03-23T14:45:20.464Z,100766.19
2023-03-23T14:47:58.081Z,100776.59
2023-03-23T14:50:57.962Z,100780.50
2023-03-23T14:53:46.856Z,100776.63
2023-03-23T14:56:20.103Z,100786.22
2023-03-23T14:58:52.191Z,100777.44
2023-03-23T15:04:23.586Z,100789.88
2023-03-23T15:07:13.594Z,100803.84
2023-03-23T15:09:47.465Z,100805.13
2023-03-23T15:12:29.882Z,100804.47
2023-03-23T15:15:04.982Z,100809.34
2023-03-23T15:20:47.414Z,100814.22
2023-03-23T15:23:36.673Z,100839.53
2023-03-23T15:26:28.623Z,100828.63
2023-03-23T15:29:26.924Z,100836.47
2023-03-23T15:31:59.006Z,100844.28
2023-03-23T15:34:44.250Z,100842.66
2023-03-23T15:37:35.305Z,100841.84
2023-03-23T15:40:26.963Z,100838.25
2023-03-23T15:43:39.845Z,100854.88
2023-03-23T15:46:14.067Z,100864.00
2023-03-23T15:48:51.865Z,100862.38
2023-03-23T15:54:27.193Z,100853.59
2023-03-23T15:57:15.746Z,100873.78
2023-03-23T15:59:46.086Z,100870.19
2023-03-23T16:02:25.126Z,100868.22
2023-03-23T16:05:15.932Z,100867.78
2023-03-23T16:07:46.304Z,100872.13
2023-03-23T16:10:24.949Z,100866.94
2023-03-23T16:12:55.475Z,100867.28
2023-03-23T16:15:25.833Z,100868.09
2023-03-23T16:17:56.212Z,100871.69
2023-03-23T16:20:27.746Z,100868.44
2023-03-23T16:22:58.308Z,100867.94
2023-03-23T16:25:28.819Z,100867.13
2023-03-23T16:28:18.509Z,100863.56
2023-03-23T16:30:49.370Z,100869.09
2023-03-23T16:33:19.814Z,100864.34
2023-03-23T16:35:50.458Z,100859.16
2023-03-23T16:38:21.378Z,100860.31
2023-03-23T16:40:52.009Z,100861.44
2023-03-23T16:43:23.522Z,100859.16
2023-03-23T16:45:58.998Z,100855.44
2023-03-23T16:51:15.054Z,100851.50
2023-03-23T16:53:45.566Z,100852.66
2023-03-23T16:56:36.943Z,100838.00
2023-03-23T16:59:07.842Z,100847.78
2023-03-23T17:01:38.459Z,100843.41
2023-03-23T17:04:09.371Z,100839.47
2023-03-23T17:06:59.808Z,100839.16
2023-03-23T17:09:51.487Z,100838.81
2023-03-23T17:12:22.550Z,100837.88
2023-03-23T17:14:52.968Z,100835.09
2023-03-23T17:17:23.354Z,100833.13
2023-03-23T17:19:54.365Z,100827.75
2023-03-23T17:22:25.404Z,100826.47
2023-03-23T17:24:59.323Z,100831.16
2023-03-23T17:27:30.113Z,100826.47
2023-03-23T17:30:00.618Z,100825.19
2023-03-23T17:32:34.284Z,100819.66
2023-03-23T17:35:04.905Z,100811.34
2023-03-23T17:37:39.366Z,100816.38
2023-03-23T17:40:12.708Z,100820.78
2023-03-23T17:43:00.862Z,100817.19
2023-03-23T17:45:31.724Z,100810.03
2023-03-23T17:48:02.077Z,100807.59
2023-03-23T17:50:51.994Z,100798.97
2023-03-23T17:56:26.386Z,100796.53
2023-03-23T17:58:56.864Z,100797.66
2023-03-23T18:01:27.749Z,100788.50
2023-03-23T18:03:58.172Z,100792.44
2023-03-23T18:06:28.742Z,100780.56
2023-03-23T18:08:59.050Z,100778.13
2023-03-23T18:11:30.287Z,100775.03
2023-03-23T18:14:18.804Z,100777.44
2023-03-23T18:16:49.721Z,100779.41
2023-03-23T18:19:20.065Z,100779.06
2023-03-23T18:21:50.336Z,100773.41
2023-03-23T18:24:20.488Z,100779.75
2023-03-23T18:26:50.923Z,100772.59
2023-03-23T18:29:21.339Z,100773.41
2023-03-23T18:31:51.610Z,100769.81
2023-03-23T18:34:21.939Z,100765.91
2023-03-23T18:36:52.211Z,100762.97
2023-03-23T18:39:22.530Z,100764.13
2023-03-23T18:41:52.900Z,100764.59
2023-03-23T18:44:24.966Z,100758.59
2023-03-23T18:46:55.368Z,100758.94
2023-03-23T18:49:26.192Z,100751.78
2023-03-23T18:52:14.423Z,100743.13
2023-03-23T18:54:47.600Z,100740.22
2023-03-23T18:57:20.411Z,100739.09
2023-03-23T18:59:50.839Z,100739.91
2023-03-23T19:02:22.626Z,100739.44
2023-03-23T19:04:53.634Z,100728.84
2023-03-23T19:07:24.065Z,100732.75
2023-03-23T19:09:54.230Z,100728.84
2023-03-23T19:12:25.559Z,100728.84
2023-03-23T19:15:13.919Z,100721.69
2023-03-23T19:17:44.554Z,100720.06
2023-03-23T19:20:26.938Z,100713.03
2023-03-23T19:23:06.727Z,100721.81
2023-03-23T19:25:37.155Z,100723.44
2023-03-23T19:30:45.873Z,100714.31
2023-03-23T19:33:17.093Z,100723.44
2023-03-23T19:36:12.254Z,100720.53
2023-03-23T19:38:43.767Z,100716.81
2023-03-23T19:41:14.134Z,100717.78
2023-03-23T19:43:45.759Z,100716.63
2023-03-23T19:46:16.813Z,100721.81
2023-03-23T19:48:47.151Z,100715.81
2023-03-23T19:51:20.941Z,100711.75
2023-03-23T19:54:10.315Z,100710.94
2023-03-23T19:56:40.804Z,100711.28
2023-03-23T19:59:13.930Z,100705.09
2023-03-23T20:01:45.020Z,100709.47
2023-03-23T20:07:02.793Z,100697.25
2023-03-23T20:09:51.902Z,100697.91
2023-03-23T20:12:22.338Z,100694.00
2023-03-23T20:14:53.140Z,100698.72
2023-03-23T20:17:23.427Z,100699.84
2023-03-23T20:19:54.007Z,100695.47
2023-03-23T20:23:02.224Z,100698.72
2023-03-23T20:25:51.350Z,100704.59
2023-03-23T20:28:21.711Z,100691.91
2023-03-23T20:31:18.888Z,100696.28
2023-03-23T20:33:42.392Z,100704.25
2023-03-23T20:36:13.493Z,100704.59
2023-03-23T20:38:45.080Z,100704.91
2023-03-23T20:44:22.124Z,100701.69
2023-03-23T20:46:54.062Z,100702.50
2023-03-23T20:49:25.371Z,100694.97
2023-03-23T20:51:57.179Z,100694.53
2023-03-23T20:54:27.581Z,100703.63
2023-03-23T20:57:00.924Z,100704.47
2023-03-23T20:59:31.537Z,100702.50
2023-03-23T21:02:04.630Z,100702.34
2023-03-23T21:07:20.626Z,100714.22
2023-03-23T21:10:09.672Z,100713.41
2023-03-23T21:12:40.468Z,100712.59
2023-03-23T21:15:10.937Z,100711.44
2023-03-23T21:17:41.026Z,100709.50
2023-03-23T21:20:13.442Z,100714.22
2023-03-23T21:23:03.853Z,100710.31
2023-03-23T21:25:37.015Z,100711.44
2023-03-23T21:28:09.480Z,100721.72
2023-03-23T21:30:39.858Z,100717.81
2023-03-23T21:33:11.310Z,100720.59
2023-03-23T21:35:42.196Z,100714.88
2023-03-23T21:38:16.735Z,100727.56
2023-03-23T21:40:47.315Z,100726.44
2023-03-23T21:43:19.165Z,100725.63
2023-03-23T21:45:50.534Z,100720.75
2023-03-23T21:48:20.818Z,100726.44
2023-03-23T21:50:52.819Z,100731.47
2023-03-23T21:53:25.233Z,100725.50
2023-03-23T21:56:14.563Z,100722.72
2023-03-23T21:59:04.082Z,100725.94
2023-03-23T22:01:34.238Z,100731.03
2023-03-23T22:04:04.412Z,100723.53
2023-03-23T22:06:36.741Z,100731.66
2023-03-23T22:09:12.041Z,100729.19
2023-03-23T22:11:43.362Z,100736.22
2023-03-23T22:14:14.949Z,100734.59
2023-03-23T22:16:45.579Z,100739.31
2023-03-23T22:19:16.085Z,100741.25
2023-03-23T22:21:46.714Z,100756.06
2023-03-23T22:24:17.140Z,100752.16
2023-03-23T22:26:47.791Z,100746.44
2023-03-23T22:29:19.442Z,100759.97
2023-03-23T22:31:50.097Z,100756.06
2023-03-23T22:34:21.050Z,100755.22
2023-03-23T22:36:51.560Z,100763.06
2023-03-23T22:39:21.991Z,100766.16
2023-03-23T22:41:52.725Z,100763.75
2023-03-23T22:44:23.130Z,100765.38
2023-03-23T22:46:54.687Z,100767.00
2023-03-23T22:49:25.191Z,100767.78
2023-03-23T22:51:55.976Z,100771.84
2023-03-23T22:54:26.377Z,100779.66
2023-03-23T22:56:57.947Z,100778.06
2023-03-23T22:59:29.610Z,100785.19
2023-03-23T23:04:08.906Z,100795.09
2023-03-23T23:06:39.538Z,100794.66
2023-03-23T23:09:10.379Z,100805.03
2023-03-23T23:11:41.171Z,100794.66
2023-03-23T23:14:11.436Z,100801.97
2023-03-23T23:16:42.214Z,100810.13
2023-03-23T23:19:12.342Z,100810.13
2023-03-23T23:21:43.541Z,100816.13
2023-03-23T23:24:13.916Z,100814.84
2023-03-23T23:26:44.248Z,100817.59
2023-03-23T23:29:14.802Z,100825.28
2023-03-23T23:31:45.507Z,100834.53
2023-03-23T23:34:16.726Z,100830.47
2023-03-23T23:36:48.027Z,100836.81
2023-03-23T23:39:18.639Z,100845.91
2023-03-23T23:41:50.004Z,100846.25
2023-03-23T23:44:20.429Z,100849.50
2023-03-23T23:46:50.727Z,100852.94
2023-03-23T23:49:25.302Z,100862.84
2023-03-23T23:51:55.691Z,100870.31
2023-03-23T23:54:31.983Z,100864.34
2023-03-23T23:57:03.772Z,100868.69
2023-03-23T23:59:34.190Z,100876.53
